sensor_id;sensor_type;location;lat;lon;timestamp;pressure;altitude;pressure_sealevel;temperature;humidity
41515;BME280;27247;48.020;16.720;2023-02-18T00:04:02;100208.94;;;12.15;82.39
41515;BME280;27247;48.020;16.720;2023-02-18T00:08:13;100201.69;;;12.24;81.75
41515;BME280;27247;48.020;16.720;2023-02-18T00:12:23;100204.38;;;12.24;82.16
41515;BME280;27247;48.020;16.720;2023-02-18T00:16:33;100202.88;;;12.21;82.12
41515;BME280;27247;48.020;16.720;2023-02-18T00:20:44;100209.06;;;12.22;82.00
41515;BME280;27247;48.020;16.720;2023-02-18T00:24:54;100208.53;;;12.26;81.60
41515;BME280;27247;48.020;16.720;2023-02-18T00:29:04;100217.22;;;12.28;81.32
41515;BME280;27247;48.020;16.720;2023-02-18T00:33:16;100230.97;;;12.25;81.60
41515;BME280;27247;48.020;16.720;2023-02-18T00:37:26;100238.50;;;12.30;80.93
41515;BME280;27247;48.020;16.720;2023-02-18T00:41:37;100244.50;;;12.32;80.37
41515;BME280;27247;48.020;16.720;2023-02-18T00:45:47;100239.56;;;12.43;nan
41515;BME280;27247;48.020;16.720;2023-02-18T00:49:57;100243.72;;;12.54;79.72
41515;BME280;27247;48.020;16.720;2023-02-18T00:54:08;100242.81;;;12.62;79.54
41515;BME280;27247;48.020;16.720;2023-02-18T00:58:18;100243.47;;;12.64;79.71
41515;BME280;27247;48.020;16.720;2023-02-18T01:02:29;100241.56;;;12.72;79.32
41515;BME280;27247;48.020;16.720;2023-02-18T01:06:39;100243.59;;;12.70;79.99
41515;BME280;27247;48.020;16.720;2023-02-18T01:10:53;100226.50;;;12.71;79.70
41515;BME280;27247;48.020;16.720;2023-02-18T01:15:04;100241.88;;;12.77;78.79
41515;BME280;27247;48.020;16.720;2023-02-18T01:19:15;100236.16;;;12.81;79.41
41515;BME280;27247;48.020;16.720;2023-02-18T01:23:25;100235.25;;;12.65;80.71
41515;BME280;27247;48.020;16.720;2023-02-18T01:27:36;100230.56;;;12.67;80.54
41515;BME280;27247;48.020;16.720;2023-02-18T01:31:47;100226.56;;;12.63;80.80
41515;BME280;27247;48.020;16.720;2023-02-18T01:35:57;100212.78;;;12.66;80.95
41515;BME280;27247;48.020;16.720;2023-02-18T01:40:10;100212.50;;;12.61;81.33
41515;BME280;27247;48.020;16.720;2023-02-18T01:44:24;100209.94;;;12.68;80.82
41515;BME280;27247;48.020;16.720;2023-02-18T01:48:42;100215.47;;;12.66;81.27
41515;BME280;27247;48.020;16.720;2023-02-18T01:52:53;100203.75;;;12.67;80.90
41515;BME280;27247;48.020;16.720;2023-02-18T01:57:05;100206.88;;;12.71;80.80
41515;BME280;27247;48.020;16.720;2023-02-18T02:01:15;100192.47;;;12.72;80.65
41515;BME280;27247;48.020;16.720;2023-02-18T02:05:30;100197.72;;;12.65;81.08
41515;BME280;27247;48.020;16.720;2023-02-18T02:09:41;100189.31;;;12.68;81.03
41515;BME280;27247;48.020;16.720;2023-02-18T02:14:05;100185.16;;;12.66;80.96
41515;BME280;27247;48.020;16.720;2023-02-18T02:27:25;100187.22;;;12.78;80.50
41515;BME280;27247;48.020;16.720;2023-02-18T02:40:19;100181.53;;;12.59;81.64
41515;BME280;27247;48.020;16.720;2023-02-18T02:44:38;100181.69;;;12.57;81.52
41515;BME280;27247;48.020;16.720;2023-02-18T02:53:28;100188.97;;;12.49;81.53
41515;BME280;27247;48.020;16.720;2023-02-18T02:57:51;100180.69;;;12.58;81.15
41515;BME280;27247;48.020;16.720;2023-02-18T03:11:28;100189.47;;;12.44;81.58
41515;BME280;27247;48.020;16.720;2023-02-18T03:16:16;100186.50;;;12.39;81.58
41515;BME280;27247;48.020;16.720;2023-02-18T03:21:00;100180.19;;;12.32;81.84
41515;BME280;27247;48.020;16.720;2023-02-18T03:25:13;100183.59;;;12.26;82.13
41515;BME280;27247;48.020;16.720;2023-02-18T03:29:25;100170.72;;;12.21;82.52
41515;BME280;27247;48.020;16.720;2023-02-18T03:33:42;100179.94;;;12.19;82.92
41515;BME280;27247;48.020;16.720;2023-02-18T03:38:01;100186.09;;;12.27;82.31
41515;BME280;27247;48.020;16.720;2023-02-18T03:42:15;100175.47;;;12.34;82.07
41515;BME280;27247;48.020;16.720;2023-02-18T03:46:27;100183.88;;;12.31;82.47
41515;BME280;27247;48.020;16.720;2023-02-18T03:50:37;100203.66;;;12.30;82.69
41515;BME280;27247;48.020;16.720;2023-02-18T03:54:48;100196.16;;;12.25;82.61
41515;BME280;27247;48.020;16.720;2023-02-18T03:58:58;100202.50;;;12.24;82.25
41515;BME280;27247;48.020;16.720;2023-02-18T04:03:08;100207.41;;;12.21;82.16
41515;BME280;27247;48.020;16.720;2023-02-18T04:07:19;100203.94;;;12.12;82.54
41515;BME280;27247;48.020;16.720;2023-02-18T04:11:29;100204.81;;;12.04;82.59
41515;BME280;27247;48.020;16.720;2023-02-18T04:15:40;100210.22;;;11.96;82.38
41515;BME280;27247;48.020;16.720;2023-02-18T04:19:50;100214.72;;;11.96;82.47
41515;BME280;27247;48.020;16.720;2023-02-18T04:24:01;100206.88;;;11.94;82.55
41515;BME280;27247;48.020;16.720;2023-02-18T04:28:13;100207.22;;;11.91;82.53
41515;BME280;27247;48.020;16.720;2023-02-18T04:32:24;100211.41;;;11.94;82.23
41515;BME280;27247;48.020;16.720;2023-02-18T04:36:34;100220.63;;;11.91;82.30
41515;BME280;27247;48.020;16.720;2023-02-18T04:40:45;100232.88;;;11.86;82.95
41515;BME280;27247;48.020;16.720;2023-02-18T04:44:55;100232.50;;;11.89;82.53
41515;BME280;27247;48.020;16.720;2023-02-18T04:49:06;100226.97;;;11.90;82.58
41515;BME280;27247;48.020;16.720;2023-02-18T04:53:16;100225.13;;;11.91;82.21
41515;BME280;27247;48.020;16.720;2023-02-18T04:57:26;100229.63;;;11.98;82.02
41515;BME280;27247;48.020;16.720;2023-02-18T05:01:37;100220.44;;;11.93;82.11
41515;BME280;27247;48.020;16.720;2023-02-18T05:05:47;100229.50;;;11.92;82.18
41515;BME280;27247;48.020;16.720;2023-02-18T05:09:57;100221.41;;;12.00;81.89
41515;BME280;27247;48.020;16.720;2023-02-18T05:14:08;100226.59;;;12.01;82.12
41515;BME280;27247;48.020;16.720;2023-02-18T05:18:18;100238.63;;;12.05;82.11
41515;BME280;27247;48.020;16.720;2023-02-18T05:22:28;100246.31;;;12.08;81.40
41515;BME280;27247;48.020;16.720;2023-02-18T05:26:39;100242.97;;;12.06;81.74
41515;BME280;27247;48.020;16.720;2023-02-18T05:30:49;100257.38;;;12.05;81.44
41515;BME280;27247;48.020;16.720;2023-02-18T05:34:59;100249.03;;;12.00;81.62
41515;BME280;27247;48.020;16.720;2023-02-18T05:39:10;100259.41;;;12.03;81.01
41515;BME280;27247;48.020;16.720;2023-02-18T05:43:20;100252.19;;;12.04;81.56
41515;BME280;27247;48.020;16.720;2023-02-18T05:47:31;100248.19;;;12.00;81.96
41515;BME280;27247;48.020;16.720;2023-02-18T05:51:41;100262.56;;;12.07;81.52
41515;BME280;27247;48.020;16.720;2023-02-18T05:55:51;100263.41;;;12.07;81.35
41515;BME280;27247;48.020;16.720;2023-02-18T06:00:04;100268.94;;;12.06;81.33
41515;BME280;27247;48.020;16.720;2023-02-18T06:04:14;100275.09;;;12.14;81.41
41515;BME280;27247;48.020;16.720;2023-02-18T06:08:25;100276.63;;;12.09;81.46
41515;BME280;27247;48.020;16.720;2023-02-18T06:12:35;100270.06;;;12.11;81.85
41515;BME280;27247;48.020;16.720;2023-02-18T06:16:45;100274.78;;;12.09;81.77
41515;BME280;27247;48.020;16.720;2023-02-18T06:20:56;100286.84;;;12.05;82.31
41515;BME280;27247;48.020;16.720;2023-02-18T06:25:06;100281.78;;;12.10;81.98
41515;BME280;27247;48.020;16.720;2023-02-18T06:29:17;100283.47;;;12.11;81.75
41515;BME280;27247;48.020;16.720;2023-02-18T06:33:27;100274.91;;;12.16;82.07
41515;BME280;27247;48.020;16.720;2023-02-18T06:37:38;100271.03;;;12.19;81.94
41515;BME280;27247;48.020;16.720;2023-02-18T06:41:48;100269.50;;;12.24;81.70
41515;BME280;27247;48.020;16.720;2023-02-18T06:45:58;100278.03;;;12.28;82.18
41515;BME280;27247;48.020;16.720;2023-02-18T06:50:09;100273.97;;;12.32;81.93
41515;BME280;27247;48.020;16.720;2023-02-18T06:54:20;100264.94;;;12.33;82.35
41515;BME280;27247;48.020;16.720;2023-02-18T06:58:30;100273.31;;;12.30;82.72
41515;BME280;27247;48.020;16.720;2023-02-18T07:02:41;100285.06;;;12.29;82.72
41515;BME280;27247;48.020;16.720;2023-02-18T07:06:51;100273.38;;;12.22;83.62
41515;BME280;27247;48.020;16.720;2023-02-18T07:11:02;100284.09;;;12.22;83.92
41515;BME280;27247;48.020;16.720;2023-02-18T07:15:12;100281.28;;;12.15;84.63
41515;BME280;27247;48.020;16.720;2023-02-18T07:19:23;100279.78;;;12.12;85.15
41515;BME280;27247;48.020;16.720;2023-02-18T07:23:33;100276.22;;;12.20;84.67
41515;BME280;27247;48.020;16.720;2023-02-18T07:27:44;100286.09;;;12.20;85.08
41515;BME280;27247;48.020;16.720;2023-02-18T07:31:54;100268.84;;;12.22;84.97
41515;BME280;27247;48.020;16.720;2023-02-18T07:36:05;100266.50;;;12.19;85.18
41515;BME280;27247;48.020;16.720;2023-02-18T07:40:18;100263.47;;;12.22;85.34
41515;BME280;27247;48.020;16.720;2023-02-18T07:44:28;100268.66;;;12.24;85.59
41515;BME280;27247;48.020;16.720;2023-02-18T07:48:39;100255.09;;;12.25;85.57
41515;BME280;27247;48.020;16.720;2023-02-18T07:52:51;100265.09;;;12.31;85.59
41515;BME280;27247;48.020;16.720;2023-02-18T07:57:04;100264.06;;;12.40;85.22
41515;BME280;27247;48.020;16.720;2023-02-18T08:01:14;100270.38;;;12.47;84.91
41515;BME280;27247;48.020;16.720;2023-02-18T08:05:25;100259.97;;;12.53;84.36
41515;BME280;27247;48.020;16.720;2023-02-18T08:09:35;100273.22;;;12.54;84.99
41515;BME280;27247;48.020;16.720;2023-02-18T08:13:47;100273.16;;;12.62;84.08
41515;BME280;27247;48.020;16.720;2023-02-18T08:17:57;100271.59;;;12.68;84.17
41515;BME280;27247;48.020;16.720;2023-02-18T08:22:07;100270.72;;;12.75;84.10
41515;BME280;27247;48.020;16.720;2023-02-18T08:26:19;100281.19;;;12.85;83.16
41515;BME280;27247;48.020;16.720;2023-02-18T08:30:30;100264.56;;;12.90;82.84
41515;BME280;27247;48.020;16.720;2023-02-18T08:34:41;100282.97;;;12.93;82.62
41515;BME280;27247;48.020;16.720;2023-02-18T08:38:51;100286.31;;;12.95;82.08
41515;BME280;27247;48.020;16.720;2023-02-18T08:43:02;100271.53;;;12.99;82.87
41515;BME280;27247;48.020;16.720;2023-02-18T08:47:12;100281.66;;;13.11;83.48
41515;BME280;27247;48.020;16.720;2023-02-18T08:51:22;100256.81;;;13.18;82.15
41515;BME280;27247;48.020;16.720;2023-02-18T08:55:33;100257.38;;;13.28;81.65
41515;BME280;27247;48.020;16.720;2023-02-18T08:59:45;100253.31;;;13.32;81.77
41515;BME280;27247;48.020;16.720;2023-02-18T09:03:55;100260.44;;;13.39;80.66
41515;BME280;27247;48.020;16.720;2023-02-18T09:08:06;100264.34;;;13.52;80.73
41515;BME280;27247;48.020;16.720;2023-02-18T09:12:16;100266.31;;;13.58;80.10
41515;BME280;27247;48.020;16.720;2023-02-18T09:16:27;100267.34;;;13.57;79.45
41515;BME280;27247;48.020;16.720;2023-02-18T09:20:39;100247.25;;;13.53;79.11
41515;BME280;27247;48.020;16.720;2023-02-18T09:24:49;100267.41;;;13.49;80.19
41515;BME280;27247;48.020;16.720;2023-02-18T09:28:59;100255.97;;;13.55;79.36
41515;BME280;27247;48.020;16.720;2023-02-18T09:33:10;100250.13;;;13.66;78.15
41515;BME280;27247;48.020;16.720;2023-02-18T09:37:21;100247.81;;;13.78;78.43
41515;BME280;27247;48.020;16.720;2023-02-18T09:41:58;100253.81;;;13.94;77.71
41515;BME280;27247;48.020;16.720;2023-02-18T09:46:27;100253.97;;;14.07;77.29
41515;BME280;27247;48.020;16.720;2023-02-18T09:50:39;100250.16;;;14.17;76.77
41515;BME280;27247;48.020;16.720;2023-02-18T09:54:50;100250.69;;;14.27;77.26
41515;BME280;27247;48.020;16.720;2023-02-18T09:59:04;100247.75;;;14.22;77.21
41515;BME280;27247;48.020;16.720;2023-02-18T10:03:21;100237.59;;;14.38;77.65
41515;BME280;27247;48.020;16.720;2023-02-18T10:07:32;100230.91;;;14.49;76.31
41515;BME280;27247;48.020;16.720;2023-02-18T10:11:48;100233.97;;;14.46;76.89
41515;BME280;27247;48.020;16.720;2023-02-18T10:16:00;100218.03;;;14.45;76.51
41515;BME280;27247;48.020;16.720;2023-02-18T10:20:15;100223.84;;;14.48;76.13
41515;BME280;27247;48.020;16.720;2023-02-18T10:24:37;100224.13;;;14.53;76.51
41515;BME280;27247;48.020;16.720;2023-02-18T10:28:49;100227.28;;;14.57;76.23
41515;BME280;27247;48.020;16.720;2023-02-18T10:33:26;100225.34;;;14.51;75.20
41515;BME280;27247;48.020;16.720;2023-02-18T10:51:33;100225.34;;;14.36;75.37
41515;BME280;27247;48.020;16.720;2023-02-18T10:55:46;100219.59;;;14.39;74.76
41515;BME280;27247;48.020;16.720;2023-02-18T11:04:36;100210.88;;;14.37;75.19
41515;BME280;27247;48.020;16.720;2023-02-18T11:08:49;100199.50;;;14.35;74.95
41515;BME280;27247;48.020;16.720;2023-02-18T11:13:02;100196.81;;;14.35;75.27
41515;BME280;27247;48.020;16.720;2023-02-18T11:17:25;100183.28;;;14.28;74.76
41515;BME280;27247;48.020;16.720;2023-02-18T11:21:37;100188.53;;;14.36;75.32
41515;BME280;27247;48.020;16.720;2023-02-18T11:26:06;100162.78;;;14.42;71.61
41515;BME280;27247;48.020;16.720;2023-02-18T11:30:24;100136.69;;;14.57;71.64
41515;BME280;27247;48.020;16.720;2023-02-18T11:34:36;100149.41;;;14.70;71.75
41515;BME280;27247;48.020;16.720;2023-02-18T11:47:27;100125.44;;;14.75;70.56
41515;BME280;27247;48.020;16.720;2023-02-18T11:51:39;100115.22;;;14.64;70.29
41515;BME280;27247;48.020;16.720;2023-02-18T11:55:55;100116.81;;;14.58;71.45
41515;BME280;27247;48.020;16.720;2023-02-18T12:00:23;100110.63;;;14.58;71.13
41515;BME280;27247;48.020;16.720;2023-02-18T12:04:52;100104.22;;;14.59;70.97
41515;BME280;27247;48.020;16.720;2023-02-18T12:09:05;100104.00;;;14.60;70.45
41515;BME280;27247;48.020;16.720;2023-02-18T12:13:32;100095.41;;;14.72;71.29
41515;BME280;27247;48.020;16.720;2023-02-18T12:27:24;100062.88;;;14.66;70.76
41515;BME280;27247;48.020;16.720;2023-02-18T12:32:04;100048.97;;;14.91;70.71
41515;BME280;27247;48.020;16.720;2023-02-18T12:36:37;100047.72;;;15.82;67.22
41515;BME280;27247;48.020;16.720;2023-02-18T12:41:12;100035.72;;;16.18;65.65
41515;BME280;27247;48.020;16.720;2023-02-18T12:45:45;100027.19;;;15.81;66.19
41515;BME280;27247;48.020;16.720;2023-02-18T12:50:02;100013.25;;;15.64;65.48
41515;BME280;27247;48.020;16.720;2023-02-18T12:59:27;99989.81;;;15.58;65.34
41515;BME280;27247;48.020;16.720;2023-02-18T13:17:04;99957.31;;;16.26;63.27
41515;BME280;27247;48.020;16.720;2023-02-18T13:21:18;99958.50;;;16.70;62.57
41515;BME280;27247;48.020;16.720;2023-02-18T13:25:34;99937.72;;;16.83;61.54
41515;BME280;27247;48.020;16.720;2023-02-18T13:39:05;99934.53;;;17.38;59.75
41515;BME280;27247;48.020;16.720;2023-02-18T13:43:18;99923.56;;;17.58;59.08
41515;BME280;27247;48.020;16.720;2023-02-18T13:47:45;99901.84;;;17.77;58.51
41515;BME280;27247;48.020;16.720;2023-02-18T13:51:57;99895.41;;;17.78;57.81
41515;BME280;27247;48.020;16.720;2023-02-18T13:56:27;99885.13;;;17.55;58.48
41515;BME280;27247;48.020;16.720;2023-02-18T14:00:40;99875.50;;;17.66;58.33
41515;BME280;27247;48.020;16.720;2023-02-18T14:05:22;99869.25;;;17.72;58.22
41515;BME280;27247;48.020;16.720;2023-02-18T14:09:34;99875.81;;;17.83;58.62
41515;BME280;27247;48.020;16.720;2023-02-18T14:26:46;99844.47;;;17.19;59.02
41515;BME280;27247;48.020;16.720;2023-02-18T14:49:10;99829.16;;;17.69;58.21
41515;BME280;27247;48.020;16.720;2023-02-18T14:53:25;99816.97;;;17.53;58.56
41515;BME280;27247;48.020;16.720;2023-02-18T14:57:56;99813.25;;;17.79;57.86
41515;BME280;27247;48.020;16.720;2023-02-18T15:02:28;99813.44;;;17.53;58.37
41515;BME280;27247;48.020;16.720;2023-02-18T15:06:42;99813.66;;;17.27;58.73
41515;BME280;27247;48.020;16.720;2023-02-18T15:10:58;99802.13;;;17.13;59.40
41515;BME280;27247;48.020;16.720;2023-02-18T15:15:13;99809.25;;;17.07;60.21
41515;BME280;27247;48.020;16.720;2023-02-18T15:19:28;99797.09;;;16.91;60.21
41515;BME280;27247;48.020;16.720;2023-02-18T15:23:39;99790.16;;;16.71;60.21
41515;BME280;27247;48.020;16.720;2023-02-18T15:27:51;99794.75;;;16.57;60.93
41515;BME280;27247;48.020;16.720;2023-02-18T15:32:14;99796.22;;;16.53;61.15
41515;BME280;27247;48.020;16.720;2023-02-18T15:36:25;99795.66;;;16.38;61.14
41515;BME280;27247;48.020;16.720;2023-02-18T15:40:37;99810.00;;;16.32;61.92
41515;BME280;27247;48.020;16.720;2023-02-18T15:44:54;99808.13;;;16.32;61.98
41515;BME280;27247;48.020;16.720;2023-02-18T15:49:06;99801.97;;;16.18;62.42
41515;BME280;27247;48.020;16.720;2023-02-18T15:53:17;99803.88;;;16.05;62.97
41515;BME280;27247;48.020;16.720;2023-02-18T15:57:30;99798.94;;;15.88;63.31
41515;BME280;27247;48.020;16.720;2023-02-18T16:01:50;99807.25;;;15.74;63.96
41515;BME280;27247;48.020;16.720;2023-02-18T16:06:25;99800.41;;;15.58;64.66
41515;BME280;27247;48.020;16.720;2023-02-18T16:10:45;99795.22;;;15.50;64.51
41515;BME280;27247;48.020;16.720;2023-02-18T16:14:57;99790.88;;;15.42;65.04
41515;BME280;27247;48.020;16.720;2023-02-18T16:19:22;99802.47;;;15.29;65.25
41515;BME280;27247;48.020;16.720;2023-02-18T16:23:57;99776.16;;;15.18;65.66
41515;BME280;27247;48.020;16.720;2023-02-18T16:28:15;99785.28;;;15.04;66.03
41515;BME280;27247;48.020;16.720;2023-02-18T16:32:26;99797.06;;;15.03;66.27
41515;BME280;27247;48.020;16.720;2023-02-18T16:36:36;99785.25;;;14.91;66.81
41515;BME280;27247;48.020;16.720;2023-02-18T16:41:08;99794.56;;;14.82;67.20
41515;BME280;27247;48.020;16.720;2023-02-18T16:45:25;99786.47;;;14.68;67.39
41515;BME280;27247;48.020;16.720;2023-02-18T16:49:44;99787.69;;;14.59;67.21
41515;BME280;27247;48.020;16.720;2023-02-18T16:53:55;99799.22;;;14.53;67.47
41515;BME280;27247;48.020;16.720;2023-02-18T16:58:05;99776.84;;;14.46;67.09
41515;BME280;27247;48.020;16.720;2023-02-18T17:02:20;99784.72;;;14.48;66.55
41515;BME280;27247;48.020;16.720;2023-02-18T17:06:32;99778.31;;;14.49;66.41
41515;BME280;27247;48.020;16.720;2023-02-18T17:10:44;99783.56;;;14.63;64.56
41515;BME280;27247;48.020;16.720;2023-02-18T17:14:55;99795.56;;;14.67;64.59
41515;BME280;27247;48.020;16.720;2023-02-18T17:19:06;99795.34;;;14.69;64.66
41515;BME280;27247;48.020;16.720;2023-02-18T17:23:18;99791.44;;;14.72;63.94
41515;BME280;27247;48.020;16.720;2023-02-18T17:27:30;99809.63;;;14.69;63.49
41515;BME280;27247;48.020;16.720;2023-02-18T17:31:43;99804.88;;;14.72;63.29
41515;BME280;27247;48.020;16.720;2023-02-18T17:35:56;99821.63;;;14.67;63.19
41515;BME280;27247;48.020;16.720;2023-02-18T17:40:12;99817.69;;;14.63;63.61
41515;BME280;27247;48.020;16.720;2023-02-18T17:44:23;99828.84;;;14.60;63.23
41515;BME280;27247;48.020;16.720;2023-02-18T17:48:35;99835.84;;;14.54;63.68
41515;BME280;27247;48.020;16.720;2023-02-18T17:52:46;99845.75;;;14.54;63.31
41515;BME280;27247;48.020;16.720;2023-02-18T17:56:56;99840.19;;;14.55;63.42
41515;BME280;27247;48.020;16.720;2023-02-18T18:01:17;99838.09;;;14.51;64.00
41515;BME280;27247;48.020;16.720;2023-02-18T18:05:35;99825.44;;;14.45;64.30
41515;BME280;27247;48.020;16.720;2023-02-18T18:09:46;99811.59;;;14.48;63.91
41515;BME280;27247;48.020;16.720;2023-02-18T18:13:57;99833.06;;;14.41;64.55
41515;BME280;27247;48.020;16.720;2023-02-18T18:18:10;99826.03;;;14.40;64.85
41515;BME280;27247;48.020;16.720;2023-02-18T18:22:21;99827.69;;;14.41;64.88
41515;BME280;27247;48.020;16.720;2023-02-18T18:26:35;99828.69;;;14.33;65.35
41515;BME280;27247;48.020;16.720;2023-02-18T18:30:48;99834.03;;;14.27;65.71
41515;BME280;27247;48.020;16.720;2023-02-18T18:35:00;99837.50;;;14.21;66.13
41515;BME280;27247;48.020;16.720;2023-02-18T18:39:10;99858.63;;;14.24;65.79
41515;BME280;27247;48.020;16.720;2023-02-18T18:43:27;99860.91;;;14.27;66.14
41515;BME280;27247;48.020;16.720;2023-02-18T18:47:38;99859.44;;;14.24;66.30
41515;BME280;27247;48.020;16.720;2023-02-18T18:51:49;99870.41;;;14.23;65.97
41515;BME280;27247;48.020;16.720;2023-02-18T18:56:04;99855.47;;;14.14;66.82
41515;BME280;27247;48.020;16.720;2023-02-18T19:00:17;99864.31;;;14.07;67.08
41515;BME280;27247;48.020;16.720;2023-02-18T19:04:28;99861.34;;;13.96;67.41
41515;BME280;27247;48.020;16.720;2023-02-18T19:08:39;99850.13;;;13.86;67.85
41515;BME280;27247;48.020;16.720;2023-02-18T19:12:49;99855.88;;;13.83;67.86
41515;BME280;27247;48.020;16.720;2023-02-18T19:17:00;99865.38;;;13.79;68.62
41515;BME280;27247;48.020;16.720;2023-02-18T19:21:11;99881.28;;;13.80;68.61
41515;BME280;27247;48.020;16.720;2023-02-18T19:25:22;99875.72;;;13.82;68.47
41515;BME280;27247;48.020;16.720;2023-02-18T19:29:33;99879.88;;;13.84;68.72
41515;BME280;27247;48.020;16.720;2023-02-18T19:33:44;99883.38;;;13.85;68.57
41515;BME280;27247;48.020;16.720;2023-02-18T19:37:56;99893.69;;;13.81;69.00
41515;BME280;27247;48.020;16.720;2023-02-18T19:42:07;99896.53;;;13.73;69.01
41515;BME280;27247;48.020;16.720;2023-02-18T19:46:22;99907.75;;;13.83;68.44
41515;BME280;27247;48.020;16.720;2023-02-18T19:50:33;99913.75;;;13.85;68.64
41515;BME280;27247;48.020;16.720;2023-02-18T19:54:44;99927.00;;;13.87;68.91
41515;BME280;27247;48.020;16.720;2023-02-18T19:58:56;99920.16;;;13.84;69.77
41515;BME280;27247;48.020;16.720;2023-02-18T20:03:07;99926.94;;;13.80;69.85
41515;BME280;27247;48.020;16.720;2023-02-18T20:07:19;99938.03;;;13.70;70.16
41515;BME280;27247;48.020;16.720;2023-02-18T20:11:31;99945.69;;;13.73;70.29
41515;BME280;27247;48.020;16.720;2023-02-18T20:15:42;99950.03;;;13.74;70.33
41515;BME280;27247;48.020;16.720;2023-02-18T20:19:53;99952.66;;;13.68;70.80
41515;BME280;27247;48.020;16.720;2023-02-18T20:24:04;99956.75;;;13.64;70.74
41515;BME280;27247;48.020;16.720;2023-02-18T20:28:16;99955.47;;;13.60;70.88
41515;BME280;27247;48.020;16.720;2023-02-18T20:32:26;99955.88;;;13.57;71.38
41515;BME280;27247;48.020;16.720;2023-02-18T20:36:38;99959.38;;;13.57;71.58
41515;BME280;27247;48.020;16.720;2023-02-18T20:40:51;99968.19;;;13.51;71.65
41515;BME280;27247;48.020;16.720;2023-02-18T20:45:02;99967.53;;;13.49;71.65
41515;BME280;27247;48.020;16.720;2023-02-18T20:49:16;99972.84;;;13.42;71.67
41515;BME280;27247;48.020;16.720;2023-02-18T20:53:30;99966.63;;;13.42;72.05
41515;BME280;27247;48.020;16.720;2023-02-18T20:57:41;99975.97;;;13.46;71.74
41515;BME280;27247;48.020;16.720;2023-02-18T21:01:51;99980.69;;;13.44;72.42
41515;BME280;27247;48.020;16.720;2023-02-18T21:06:06;99981.66;;;13.36;72.43
41515;BME280;27247;48.020;16.720;2023-02-18T21:10:17;99979.53;;;13.32;72.19
41515;BME280;27247;48.020;16.720;2023-02-18T21:14:30;99995.00;;;13.30;72.37
41515;BME280;27247;48.020;16.720;2023-02-18T21:18:41;99996.78;;;13.23;72.99
41515;BME280;27247;48.020;16.720;2023-02-18T21:22:52;99994.47;;;13.20;72.84
41515;BME280;27247;48.020;16.720;2023-02-18T21:27:02;99994.72;;;13.25;72.49
41515;BME280;27247;48.020;16.720;2023-02-18T21:31:33;99996.13;;;13.21;73.22
41515;BME280;27247;48.020;16.720;2023-02-18T21:35:44;99995.31;;;13.20;73.60
41515;BME280;27247;48.020;16.720;2023-02-18T21:39:58;99995.38;;;13.12;73.68
41515;BME280;27247;48.020;16.720;2023-02-18T21:44:11;100001.31;;;13.07;73.54
41515;BME280;27247;48.020;16.720;2023-02-18T21:48:22;99996.78;;;13.08;73.56
41515;BME280;27247;48.020;16.720;2023-02-18T21:52:51;100002.88;;;13.02;73.69
41515;BME280;27247;48.020;16.720;2023-02-18T21:57:03;99988.84;;;13.00;73.68
41515;BME280;27247;48.020;16.720;2023-02-18T22:01:14;99999.75;;;12.98;73.79
41515;BME280;27247;48.020;16.720;2023-02-18T22:05:24;100005.31;;;12.97;73.66
41515;BME280;27247;48.020;16.720;2023-02-18T22:09:35;100003.75;;;12.88;74.13
41515;BME280;27247;48.020;16.720;2023-02-18T22:13:45;100015.94;;;12.90;74.06
41515;BME280;27247;48.020;16.720;2023-02-18T22:17:56;100000.31;;;12.79;73.87
41515;BME280;27247;48.020;16.720;2023-02-18T22:22:06;100000.31;;;12.79;74.15
41515;BME280;27247;48.020;16.720;2023-02-18T22:26:17;99998.56;;;12.71;74.47
41515;BME280;27247;48.020;16.720;2023-02-18T22:30:28;100012.63;;;12.73;74.85
41515;BME280;27247;48.020;16.720;2023-02-18T22:34:38;100005.31;;;12.67;74.85
41515;BME280;27247;48.020;16.720;2023-02-18T22:38:49;100008.56;;;12.63;74.85
41515;BME280;27247;48.020;16.720;2023-02-18T22:42:59;100006.97;;;12.68;74.85
41515;BME280;27247;48.020;16.720;2023-02-18T22:47:10;100017.06;;;12.66;74.93
41515;BME280;27247;48.020;16.720;2023-02-18T22:51:29;100021.78;;;12.64;75.20
41515;BME280;27247;48.020;16.720;2023-02-18T22:55:40;100023.16;;;12.60;75.38
41515;BME280;27247;48.020;16.720;2023-02-18T22:59:50;100032.22;;;12.59;75.50
41515;BME280;27247;48.020;16.720;2023-02-18T23:04:06;100036.09;;;12.57;75.49
41515;BME280;27247;48.020;16.720;2023-02-18T23:08:17;100045.16;;;12.56;75.86
41515;BME280;27247;48.020;16.720;2023-02-18T23:12:27;100025.28;;;12.50;75.69
41515;BME280;27247;48.020;16.720;2023-02-18T23:16:38;100043.53;;;12.46;75.79
41515;BME280;27247;48.020;16.720;2023-02-18T23:21:12;100046.41;;;12.45;75.56
41515;BME280;27247;48.020;16.720;2023-02-18T23:25:26;100041.88;;;12.45;75.98
41515;BME280;27247;48.020;16.720;2023-02-18T23:29:37;100039.50;;;12.51;76.04
41515;BME280;27247;48.020;16.720;2023-02-18T23:33:51;100049.59;;;12.49;75.79
41515;BME280;27247;48.020;16.720;2023-02-18T23:38:02;100046.19;;;12.55;76.15
41515;BME280;27247;48.020;16.720;2023-02-18T23:42:12;100039.97;;;12.54;76.01
41515;BME280;27247;48.020;16.720;2023-02-18T23:46:25;100042.53;;;12.47;76.03
41515;BME280;27247;48.020;16.720;2023-02-18T23:50:35;100040.84;;;12.32;77.22
41515;BME280;27247;48.020;16.720;2023-02-18T23:54:46;100045.38;;;12.31;77.46
41515;BME280;27247;48.020;16.720;2023-02-18T23:58:58;100058.50;;;12.41;77.45
